sensor_id;sensor_type;location;lat;lon;timestamp;temperature;humidity
52895;DHT22;38759;53.396;6.722;2023-03-09T00:01:37;1.60;99.90
52895;DHT22;38759;53.396;6.722;2023-03-09T00:04:03;1.50;99.90
52895;DHT22;38759;53.396;6.722;2023-03-09T00:06:29;1.60;99.90
52895;DHT22;38759;53.396;6.722;2023-03-09T00:08:56;1.50;99.90
52895;DHT22;38759;53.396;6.722;2023-03-09T00:11:22;1.50;99.90
52895;DHT22;38759;53.396;6.722;2023-03-09T00:13:49;1.50;99.90
52895;DHT22;38759;53.396;6.722;2023-03-09T00:16:23;1.50;99.90
52895;DHT22;38759;53.396;6.722;2023-03-09T00:18:49;1.50;99.90
52895;DHT22;38759;53.396;6.722;2023-03-09T00:21:17;1.50;99.90
52895;DHT22;38759;53.396;6.722;2023-03-09T00:24:07;1.50;99.90
52895;DHT22;38759;53.396;6.722;2023-03-09T00:26:35;1.40;99.90
52895;DHT22;38759;53.396;6.722;2023-03-09T00:29:03;1.40;99.90
52895;DHT22;38759;53.396;6.722;2023-03-09T00:31:29;1.40;99.90
52895;DHT22;38759;53.396;6.722;2023-03-09T00:33:54;1.40;99.90
52895;DHT22;38759;53.396;6.722;2023-03-09T00:36:20;1.40;99.90
52895;DHT22;38759;53.396;6.722;2023-03-09T00:38:53;1.40;99.90
52895;DHT22;38759;53.396;6.722;2023-03-09T00:41:20;1.40;99.90
52895;DHT22;38759;53.396;6.722;2023-03-09T00:43:46;1.30;99.90
52895;DHT22;38759;53.396;6.722;2023-03-09T00:46:13;1.30;99.90
52895;DHT22;38759;53.396;6.722;2023-03-09T00:48:39;1.30;99.90
52895;DHT22;38759;53.396;6.722;2023-03-09T00:51:05;1.20;99.90
52895;DHT22;38759;53.396;6.722;2023-03-09T00:53:32;1.20;99.90
52895;DHT22;38759;53.396;6.722;2023-03-09T00:56:01;1.20;99.90
52895;DHT22;38759;53.396;6.722;2023-03-09T00:58:28;1.20;99.90
52895;DHT22;38759;53.396;6.722;2023-03-09T01:00:53;1.10;99.90
52895;DHT22;38759;53.396;6.722;2023-03-09T01:03:19;1.10;99.90
52895;DHT22;38759;53.396;6.722;2023-03-09T01:05:45;1.10;99.90
52895;DHT22;38759;53.396;6.722;2023-03-09T01:08:10;1.10;99.90
52895;DHT22;38759;53.396;6.722;2023-03-09T01:10:39;1.10;99.90
52895;DHT22;38759;53.396;6.722;2023-03-09T01:13:05;1.00;99.90
52895;DHT22;38759;53.396;6.722;2023-03-09T01:15:31;1.00;99.90
52895;DHT22;38759;53.396;6.722;2023-03-09T01:17:57;0.90;99.90
52895;DHT22;38759;53.396;6.722;2023-03-09T01:20:23;0.90;99.90
52895;DHT22;38759;53.396;6.722;2023-03-09T01:22:48;0.90;99.90
52895;DHT22;38759;53.396;6.722;2023-03-09T01:25:14;0.90;99.90
52895;DHT22;38759;53.396;6.722;2023-03-09T01:27:40;0.90;99.90
52895;DHT22;38759;53.396;6.722;2023-03-09T01:30:06;0.80;99.90
52895;DHT22;38759;53.396;6.722;2023-03-09T01:32:32;0.70;99.90
52895;DHT22;38759;53.396;6.722;2023-03-09T01:34:58;0.70;99.90
52895;DHT22;38759;53.396;6.722;2023-03-09T01:37:24;0.70;99.90
52895;DHT22;38759;53.396;6.722;2023-03-09T01:39:50;0.70;99.90
52895;DHT22;38759;53.396;6.722;2023-03-09T01:42:15;0.70;99.90
52895;DHT22;38759;53.396;6.722;2023-03-09T01:44:41;0.70;99.90
52895;DHT22;38759;53.396;6.722;2023-03-09T01:47:07;0.60;99.90
52895;DHT22;38759;53.396;6.722;2023-03-09T01:49:45;0.60;99.90
52895;DHT22;38759;53.396;6.722;2023-03-09T01:54:53;0.50;99.90
52895;DHT22;38759;53.396;6.722;2023-03-09T01:57:44;0.50;99.90
52895;DHT22;38759;53.396;6.722;2023-03-09T02:00:20;0.50;99.90
52895;DHT22;38759;53.396;6.722;2023-03-09T02:02:51;0.50;99.90
52895;DHT22;38759;53.396;6.722;2023-03-09T02:05:45;0.50;99.90
52895;DHT22;38759;53.396;6.722;2023-03-09T02:08:09;0.50;99.90
52895;DHT22;38759;53.396;6.722;2023-03-09T02:13:40;0.40;99.90
52895;DHT22;38759;53.396;6.722;2023-03-09T02:16:06;0.50;99.90
52895;DHT22;38759;53.396;6.722;2023-03-09T02:18:32;0.40;99.90
52895;DHT22;38759;53.396;6.722;2023-03-09T02:29:03;0.40;99.90
52895;DHT22;38759;53.396;6.722;2023-03-09T02:31:28;0.40;99.90
52895;DHT22;38759;53.396;6.722;2023-03-09T02:33:54;0.40;99.90
52895;DHT22;38759;53.396;6.722;2023-03-09T02:36:20;0.40;99.90
52895;DHT22;38759;53.396;6.722;2023-03-09T02:38:47;0.40;99.90
52895;DHT22;38759;53.396;6.722;2023-03-09T02:41:13;0.40;99.90
52895;DHT22;38759;53.396;6.722;2023-03-09T02:43:52;0.40;99.90
52895;DHT22;38759;53.396;6.722;2023-03-09T02:46:19;0.40;99.90
52895;DHT22;38759;53.396;6.722;2023-03-09T02:48:45;0.40;99.90
52895;DHT22;38759;53.396;6.722;2023-03-09T02:51:11;0.40;99.90
52895;DHT22;38759;53.396;6.722;2023-03-09T02:53:36;0.40;99.90
52895;DHT22;38759;53.396;6.722;2023-03-09T02:56:02;0.40;99.90
52895;DHT22;38759;53.396;6.722;2023-03-09T02:58:28;0.50;99.90
52895;DHT22;38759;53.396;6.722;2023-03-09T03:00:54;0.50;99.90
52895;DHT22;38759;53.396;6.722;2023-03-09T03:03:20;0.50;99.90
52895;DHT22;38759;53.396;6.722;2023-03-09T03:05:47;0.50;99.90
52895;DHT22;38759;53.396;6.722;2023-03-09T03:08:12;0.60;99.90
52895;DHT22;38759;53.396;6.722;2023-03-09T03:10:38;0.50;99.90
52895;DHT22;38759;53.396;6.722;2023-03-09T03:13:04;0.60;99.90
52895;DHT22;38759;53.396;6.722;2023-03-09T03:15:29;0.60;99.90
52895;DHT22;38759;53.396;6.722;2023-03-09T03:17:55;0.60;99.90
52895;DHT22;38759;53.396;6.722;2023-03-09T03:20:21;0.60;99.90
52895;DHT22;38759;53.396;6.722;2023-03-09T03:22:47;0.60;99.90
52895;DHT22;38759;53.396;6.722;2023-03-09T03:25:13;0.60;99.90
52895;DHT22;38759;53.396;6.722;2023-03-09T03:27:39;0.70;99.90
52895;DHT22;38759;53.396;6.722;2023-03-09T03:30:05;0.70;99.90
52895;DHT22;38759;53.396;6.722;2023-03-09T03:32:31;0.70;99.90
52895;DHT22;38759;53.396;6.722;2023-03-09T03:34:57;0.70;99.90
52895;DHT22;38759;53.396;6.722;2023-03-09T03:37:23;0.70;99.90
52895;DHT22;38759;53.396;6.722;2023-03-09T03:39:49;0.70;99.90
52895;DHT22;38759;53.396;6.722;2023-03-09T03:42:15;0.70;99.90
52895;DHT22;38759;53.396;6.722;2023-03-09T03:44:40;0.70;99.90
52895;DHT22;38759;53.396;6.722;2023-03-09T03:47:06;0.80;99.90
52895;DHT22;38759;53.396;6.722;2023-03-09T03:49:32;0.70;99.90
52895;DHT22;38759;53.396;6.722;2023-03-09T03:51:57;0.80;99.90
52895;DHT22;38759;53.396;6.722;2023-03-09T03:54:23;0.70;99.90
52895;DHT22;38759;53.396;6.722;2023-03-09T03:56:49;0.80;99.90
52895;DHT22;38759;53.396;6.722;2023-03-09T03:59:14;0.80;99.90
52895;DHT22;38759;53.396;6.722;2023-03-09T04:01:40;0.80;99.90
52895;DHT22;38759;53.396;6.722;2023-03-09T04:04:06;0.80;99.90
52895;DHT22;38759;53.396;6.722;2023-03-09T04:06:31;0.70;99.90
52895;DHT22;38759;53.396;6.722;2023-03-09T04:08:58;0.80;99.90
52895;DHT22;38759;53.396;6.722;2023-03-09T04:11:24;0.80;99.90
52895;DHT22;38759;53.396;6.722;2023-03-09T04:13:50;0.80;99.90
52895;DHT22;38759;53.396;6.722;2023-03-09T04:16:16;0.80;99.90
52895;DHT22;38759;53.396;6.722;2023-03-09T04:18:42;0.90;99.90
52895;DHT22;38759;53.396;6.722;2023-03-09T04:21:08;0.70;99.90
52895;DHT22;38759;53.396;6.722;2023-03-09T04:23:34;0.70;99.90
52895;DHT22;38759;53.396;6.722;2023-03-09T04:26:02;0.70;99.90
52895;DHT22;38759;53.396;6.722;2023-03-09T04:28:28;0.70;99.90
52895;DHT22;38759;53.396;6.722;2023-03-09T04:30:54;0.70;99.90
52895;DHT22;38759;53.396;6.722;2023-03-09T04:33:20;0.70;99.90
52895;DHT22;38759;53.396;6.722;2023-03-09T04:35:46;0.60;99.90
52895;DHT22;38759;53.396;6.722;2023-03-09T04:38:12;0.60;99.90
52895;DHT22;38759;53.396;6.722;2023-03-09T04:40:38;0.60;99.90
52895;DHT22;38759;53.396;6.722;2023-03-09T04:43:04;0.60;99.90
52895;DHT22;38759;53.396;6.722;2023-03-09T04:45:30;0.50;99.90
52895;DHT22;38759;53.396;6.722;2023-03-09T04:47:56;0.50;99.90
52895;DHT22;38759;53.396;6.722;2023-03-09T04:50:22;0.50;99.90
52895;DHT22;38759;53.396;6.722;2023-03-09T04:52:48;0.50;99.90
52895;DHT22;38759;53.396;6.722;2023-03-09T04:55:16;0.50;99.90
52895;DHT22;38759;53.396;6.722;2023-03-09T04:57:42;0.50;99.90
52895;DHT22;38759;53.396;6.722;2023-03-09T05:00:08;0.50;99.90
52895;DHT22;38759;53.396;6.722;2023-03-09T05:02:37;0.50;99.90
52895;DHT22;38759;53.396;6.722;2023-03-09T05:05:04;0.50;99.90
52895;DHT22;38759;53.396;6.722;2023-03-09T05:07:30;0.50;99.90
52895;DHT22;38759;53.396;6.722;2023-03-09T05:09:56;0.50;99.90
52895;DHT22;38759;53.396;6.722;2023-03-09T05:12:22;0.60;99.90
52895;DHT22;38759;53.396;6.722;2023-03-09T05:14:47;0.50;99.90
52895;DHT22;38759;53.396;6.722;2023-03-09T05:17:13;0.50;99.90
52895;DHT22;38759;53.396;6.722;2023-03-09T05:19:39;0.50;99.90
52895;DHT22;38759;53.396;6.722;2023-03-09T05:22:05;0.50;99.90
52895;DHT22;38759;53.396;6.722;2023-03-09T05:24:31;0.50;99.90
52895;DHT22;38759;53.396;6.722;2023-03-09T05:26:57;0.50;99.90
52895;DHT22;38759;53.396;6.722;2023-03-09T05:29:23;0.60;99.90
52895;DHT22;38759;53.396;6.722;2023-03-09T05:31:48;0.60;99.90
52895;DHT22;38759;53.396;6.722;2023-03-09T05:34:14;0.60;99.90
52895;DHT22;38759;53.396;6.722;2023-03-09T05:36:39;0.60;99.90
52895;DHT22;38759;53.396;6.722;2023-03-09T05:39:05;0.60;99.90
52895;DHT22;38759;53.396;6.722;2023-03-09T05:41:31;0.60;99.90
52895;DHT22;38759;53.396;6.722;2023-03-09T05:44:00;0.60;99.90
52895;DHT22;38759;53.396;6.722;2023-03-09T05:46:26;0.60;99.90
52895;DHT22;38759;53.396;6.722;2023-03-09T05:48:52;0.60;99.90
52895;DHT22;38759;53.396;6.722;2023-03-09T05:51:18;0.60;99.90
52895;DHT22;38759;53.396;6.722;2023-03-09T05:53:44;0.70;99.90
52895;DHT22;38759;53.396;6.722;2023-03-09T05:56:09;0.70;99.90
52895;DHT22;38759;53.396;6.722;2023-03-09T05:58:35;0.70;99.90
52895;DHT22;38759;53.396;6.722;2023-03-09T06:01:01;0.70;99.90
52895;DHT22;38759;53.396;6.722;2023-03-09T06:03:26;0.60;99.90
52895;DHT22;38759;53.396;6.722;2023-03-09T06:06:04;0.70;99.90
52895;DHT22;38759;53.396;6.722;2023-03-09T06:08:30;0.60;99.90
52895;DHT22;38759;53.396;6.722;2023-03-09T06:10:59;0.70;99.90
52895;DHT22;38759;53.396;6.722;2023-03-09T06:13:26;0.70;99.90
52895;DHT22;38759;53.396;6.722;2023-03-09T06:15:51;0.70;99.90
52895;DHT22;38759;53.396;6.722;2023-03-09T06:18:17;0.70;99.90
52895;DHT22;38759;53.396;6.722;2023-03-09T06:20:44;0.70;99.90
52895;DHT22;38759;53.396;6.722;2023-03-09T06:23:11;0.70;99.90
52895;DHT22;38759;53.396;6.722;2023-03-09T06:25:37;0.70;99.90
52895;DHT22;38759;53.396;6.722;2023-03-09T06:28:03;0.70;99.90
52895;DHT22;38759;53.396;6.722;2023-03-09T06:30:29;0.70;99.90
52895;DHT22;38759;53.396;6.722;2023-03-09T06:32:54;0.70;99.90
52895;DHT22;38759;53.396;6.722;2023-03-09T06:35:22;0.70;99.90
52895;DHT22;38759;53.396;6.722;2023-03-09T06:37:48;0.70;99.90
52895;DHT22;38759;53.396;6.722;2023-03-09T06:40:14;0.70;99.90
52895;DHT22;38759;53.396;6.722;2023-03-09T06:42:40;0.70;99.90
52895;DHT22;38759;53.396;6.722;2023-03-09T06:45:07;0.70;99.90
52895;DHT22;38759;53.396;6.722;2023-03-09T06:47:33;0.70;99.90
52895;DHT22;38759;53.396;6.722;2023-03-09T06:49:58;0.70;99.90
52895;DHT22;38759;53.396;6.722;2023-03-09T06:52:24;0.70;99.90
52895;DHT22;38759;53.396;6.722;2023-03-09T06:54:51;0.70;99.90
52895;DHT22;38759;53.396;6.722;2023-03-09T06:57:17;0.80;99.90
52895;DHT22;38759;53.396;6.722;2023-03-09T06:59:43;0.80;99.90
52895;DHT22;38759;53.396;6.722;2023-03-09T07:02:11;0.80;99.90
52895;DHT22;38759;53.396;6.722;2023-03-09T07:04:37;0.80;99.90
52895;DHT22;38759;53.396;6.722;2023-03-09T07:07:03;0.80;99.90
52895;DHT22;38759;53.396;6.722;2023-03-09T07:09:29;0.80;99.90
52895;DHT22;38759;53.396;6.722;2023-03-09T07:11:57;0.80;99.90
52895;DHT22;38759;53.396;6.722;2023-03-09T07:14:24;0.80;99.90
52895;DHT22;38759;53.396;6.722;2023-03-09T07:16:54;0.80;99.90
52895;DHT22;38759;53.396;6.722;2023-03-09T07:19:21;0.80;99.90
52895;DHT22;38759;53.396;6.722;2023-03-09T07:21:47;0.80;99.90
52895;DHT22;38759;53.396;6.722;2023-03-09T07:24:13;0.80;99.90
52895;DHT22;38759;53.396;6.722;2023-03-09T07:26:39;0.80;99.90
52895;DHT22;38759;53.396;6.722;2023-03-09T07:29:05;0.90;99.90
52895;DHT22;38759;53.396;6.722;2023-03-09T07:31:31;0.90;99.90
52895;DHT22;38759;53.396;6.722;2023-03-09T07:33:57;1.00;99.90
52895;DHT22;38759;53.396;6.722;2023-03-09T07:36:24;1.10;99.90
52895;DHT22;38759;53.396;6.722;2023-03-09T07:38:50;1.10;99.90
52895;DHT22;38759;53.396;6.722;2023-03-09T07:41:16;1.20;99.90
52895;DHT22;38759;53.396;6.722;2023-03-09T07:43:42;1.30;99.90
52895;DHT22;38759;53.396;6.722;2023-03-09T07:46:12;1.30;99.90
52895;DHT22;38759;53.396;6.722;2023-03-09T07:48:39;1.40;99.90
52895;DHT22;38759;53.396;6.722;2023-03-09T07:51:06;1.40;99.90
52895;DHT22;38759;53.396;6.722;2023-03-09T07:53:34;1.40;99.90
52895;DHT22;38759;53.396;6.722;2023-03-09T07:56:00;1.50;99.90
52895;DHT22;38759;53.396;6.722;2023-03-09T07:58:30;1.50;99.90
52895;DHT22;38759;53.396;6.722;2023-03-09T08:00:57;1.60;99.90
52895;DHT22;38759;53.396;6.722;2023-03-09T08:03:23;1.60;99.90
52895;DHT22;38759;53.396;6.722;2023-03-09T08:05:49;1.60;99.90
52895;DHT22;38759;53.396;6.722;2023-03-09T08:08:24;1.70;99.90
52895;DHT22;38759;53.396;6.722;2023-03-09T08:10:52;1.80;99.90
52895;DHT22;38759;53.396;6.722;2023-03-09T08:13:18;1.80;99.90
52895;DHT22;38759;53.396;6.722;2023-03-09T08:15:45;1.80;99.90
52895;DHT22;38759;53.396;6.722;2023-03-09T08:18:11;1.90;99.90
52895;DHT22;38759;53.396;6.722;2023-03-09T08:20:38;1.90;99.90
52895;DHT22;38759;53.396;6.722;2023-03-09T08:23:04;1.90;99.90
52895;DHT22;38759;53.396;6.722;2023-03-09T08:25:30;1.90;99.90
52895;DHT22;38759;53.396;6.722;2023-03-09T08:27:56;2.00;99.90
52895;DHT22;38759;53.396;6.722;2023-03-09T08:30:22;2.00;99.90
52895;DHT22;38759;53.396;6.722;2023-03-09T08:32:49;2.00;99.90
52895;DHT22;38759;53.396;6.722;2023-03-09T08:35:15;2.00;99.90
52895;DHT22;38759;53.396;6.722;2023-03-09T08:37:41;2.10;99.90
52895;DHT22;38759;53.396;6.722;2023-03-09T08:40:08;2.10;99.90
52895;DHT22;38759;53.396;6.722;2023-03-09T08:42:34;2.10;99.90
52895;DHT22;38759;53.396;6.722;2023-03-09T08:45:00;2.20;99.90
52895;DHT22;38759;53.396;6.722;2023-03-09T08:47:26;2.20;99.90
52895;DHT22;38759;53.396;6.722;2023-03-09T08:49:52;2.30;99.90
52895;DHT22;38759;53.396;6.722;2023-03-09T08:52:18;2.30;99.90
52895;DHT22;38759;53.396;6.722;2023-03-09T08:54:44;2.30;99.90
52895;DHT22;38759;53.396;6.722;2023-03-09T08:57:11;2.30;99.90
52895;DHT22;38759;53.396;6.722;2023-03-09T08:59:37;2.40;99.90
52895;DHT22;38759;53.396;6.722;2023-03-09T09:02:03;2.40;99.90
52895;DHT22;38759;53.396;6.722;2023-03-09T09:04:28;2.40;99.90
52895;DHT22;38759;53.396;6.722;2023-03-09T09:06:54;2.50;99.90
52895;DHT22;38759;53.396;6.722;2023-03-09T09:09:20;2.60;99.90
52895;DHT22;38759;53.396;6.722;2023-03-09T09:11:46;2.60;99.90
52895;DHT22;38759;53.396;6.722;2023-03-09T09:14:12;2.70;99.90
52895;DHT22;38759;53.396;6.722;2023-03-09T09:16:38;2.70;99.90
52895;DHT22;38759;53.396;6.722;2023-03-09T09:19:03;2.80;99.90
52895;DHT22;38759;53.396;6.722;2023-03-09T09:21:29;2.80;99.90
52895;DHT22;38759;53.396;6.722;2023-03-09T09:23:56;2.90;99.90
52895;DHT22;38759;53.396;6.722;2023-03-09T09:26:23;2.90;99.90
52895;DHT22;38759;53.396;6.722;2023-03-09T09:28:49;3.00;99.90
52895;DHT22;38759;53.396;6.722;2023-03-09T09:31:17;3.10;99.90
52895;DHT22;38759;53.396;6.722;2023-03-09T09:33:45;3.10;99.90
52895;DHT22;38759;53.396;6.722;2023-03-09T09:36:13;3.20;99.90
52895;DHT22;38759;53.396;6.722;2023-03-09T09:38:40;3.20;99.90
52895;DHT22;38759;53.396;6.722;2023-03-09T09:41:10;3.30;99.90
52895;DHT22;38759;53.396;6.722;2023-03-09T09:43:38;3.30;99.90
52895;DHT22;38759;53.396;6.722;2023-03-09T09:46:05;3.40;99.90
52895;DHT22;38759;53.396;6.722;2023-03-09T09:48:36;3.40;99.90
52895;DHT22;38759;53.396;6.722;2023-03-09T09:56:56;3.60;99.90
52895;DHT22;38759;53.396;6.722;2023-03-09T10:05:40;4.00;99.90
52895;DHT22;38759;53.396;6.722;2023-03-09T10:08:39;4.10;99.90
52895;DHT22;38759;53.396;6.722;2023-03-09T10:13:45;4.40;99.90
52895;DHT22;38759;53.396;6.722;2023-03-09T10:16:43;4.50;99.90
52895;DHT22;38759;53.396;6.722;2023-03-09T10:19:17;4.60;99.90
52895;DHT22;38759;53.396;6.722;2023-03-09T10:22:05;4.60;99.90
52895;DHT22;38759;53.396;6.722;2023-03-09T10:24:39;4.70;99.90
52895;DHT22;38759;53.396;6.722;2023-03-09T10:29:57;4.90;99.90
52895;DHT22;38759;53.396;6.722;2023-03-09T10:32:51;5.00;99.90
52895;DHT22;38759;53.396;6.722;2023-03-09T10:38:04;5.50;99.90
52895;DHT22;38759;53.396;6.722;2023-03-09T10:40:34;5.80;99.90
52895;DHT22;38759;53.396;6.722;2023-03-09T10:43:07;6.00;99.90
52895;DHT22;38759;53.396;6.722;2023-03-09T10:45:35;6.10;99.90
52895;DHT22;38759;53.396;6.722;2023-03-09T10:48:05;6.10;99.90
52895;DHT22;38759;53.396;6.722;2023-03-09T10:50:37;6.00;99.90
52895;DHT22;38759;53.396;6.722;2023-03-09T10:59:08;6.00;99.90
52895;DHT22;38759;53.396;6.722;2023-03-09T11:01:34;6.00;99.90
52895;DHT22;38759;53.396;6.722;2023-03-09T11:09:19;5.90;99.90
52895;DHT22;38759;53.396;6.722;2023-03-09T11:11:47;5.80;99.90
52895;DHT22;38759;53.396;6.722;2023-03-09T11:14:21;5.70;99.90
52895;DHT22;38759;53.396;6.722;2023-03-09T11:16:56;5.80;99.90
52895;DHT22;38759;53.396;6.722;2023-03-09T11:19:22;5.80;99.90
52895;DHT22;38759;53.396;6.722;2023-03-09T11:24:37;5.90;99.90
52895;DHT22;38759;53.396;6.722;2023-03-09T11:27:22;5.90;99.90
52895;DHT22;38759;53.396;6.722;2023-03-09T11:32:15;5.90;99.90
52895;DHT22;38759;53.396;6.722;2023-03-09T11:34:41;6.00;99.90
52895;DHT22;38759;53.396;6.722;2023-03-09T11:40:02;5.90;99.90
52895;DHT22;38759;53.396;6.722;2023-03-09T11:45:17;5.90;99.90
52895;DHT22;38759;53.396;6.722;2023-03-09T11:47:47;5.90;99.90
52895;DHT22;38759;53.396;6.722;2023-03-09T11:50:42;6.00;99.90
52895;DHT22;38759;53.396;6.722;2023-03-09T11:53:30;6.00;99.90
52895;DHT22;38759;53.396;6.722;2023-03-09T11:56:36;6.00;99.90
52895;DHT22;38759;53.396;6.722;2023-03-09T12:02:10;6.00;99.90
52895;DHT22;38759;53.396;6.722;2023-03-09T12:04:37;5.90;99.90
52895;DHT22;38759;53.396;6.722;2023-03-09T12:07:24;5.90;99.90
52895;DHT22;38759;53.396;6.722;2023-03-09T12:09:53;5.80;99.90
52895;DHT22;38759;53.396;6.722;2023-03-09T12:12:30;5.80;99.90
52895;DHT22;38759;53.396;6.722;2023-03-09T12:15:16;5.80;99.90
52895;DHT22;38759;53.396;6.722;2023-03-09T12:17:56;5.70;99.90
52895;DHT22;38759;53.396;6.722;2023-03-09T12:20:40;5.80;99.90
52895;DHT22;38759;53.396;6.722;2023-03-09T12:26:05;5.70;99.90
52895;DHT22;38759;53.396;6.722;2023-03-09T12:28:50;5.60;99.90
52895;DHT22;38759;53.396;6.722;2023-03-09T12:31:35;5.60;99.90
52895;DHT22;38759;53.396;6.722;2023-03-09T12:36:42;5.60;99.90
52895;DHT22;38759;53.396;6.722;2023-03-09T12:47:21;5.60;99.90
52895;DHT22;38759;53.396;6.722;2023-03-09T12:49:57;5.60;99.90
52895;DHT22;38759;53.396;6.722;2023-03-09T12:56:12;5.60;99.90
52895;DHT22;38759;53.396;6.722;2023-03-09T13:06:06;5.80;99.90
52895;DHT22;38759;53.396;6.722;2023-03-09T13:08:51;5.80;99.90
52895;DHT22;38759;53.396;6.722;2023-03-09T13:12:00;5.80;99.90
52895;DHT22;38759;53.396;6.722;2023-03-09T13:16:56;6.00;99.90
52895;DHT22;38759;53.396;6.722;2023-03-09T13:29:53;6.00;99.90
52895;DHT22;38759;53.396;6.722;2023-03-09T13:32:41;6.10;99.90
52895;DHT22;38759;53.396;6.722;2023-03-09T13:35:37;6.10;99.90
52895;DHT22;38759;53.396;6.722;2023-03-09T13:38:05;6.00;99.90
52895;DHT22;38759;53.396;6.722;2023-03-09T13:40:48;6.00;99.90
52895;DHT22;38759;53.396;6.722;2023-03-09T13:43:18;6.00;99.90
52895;DHT22;38759;53.396;6.722;2023-03-09T13:48:28;5.90;99.90
52895;DHT22;38759;53.396;6.722;2023-03-09T13:50:54;5.90;99.90
52895;DHT22;38759;53.396;6.722;2023-03-09T13:53:25;5.90;99.90
52895;DHT22;38759;53.396;6.722;2023-03-09T13:55:56;5.90;99.90
52895;DHT22;38759;53.396;6.722;2023-03-09T13:58:22;5.80;99.90
52895;DHT22;38759;53.396;6.722;2023-03-09T14:00:59;5.90;99.90
52895;DHT22;38759;53.396;6.722;2023-03-09T14:03:34;5.80;99.90
52895;DHT22;38759;53.396;6.722;2023-03-09T14:06:06;5.80;99.90
52895;DHT22;38759;53.396;6.722;2023-03-09T14:11:06;5.70;99.90
52895;DHT22;38759;53.396;6.722;2023-03-09T14:13:33;5.60;99.90
52895;DHT22;38759;53.396;6.722;2023-03-09T14:16:03;5.60;99.90
52895;DHT22;38759;53.396;6.722;2023-03-09T14:19:03;5.60;99.90
52895;DHT22;38759;53.396;6.722;2023-03-09T14:21:34;5.50;99.90
52895;DHT22;38759;53.396;6.722;2023-03-09T14:24:12;5.50;99.90
52895;DHT22;38759;53.396;6.722;2023-03-09T14:26:38;5.40;99.90
52895;DHT22;38759;53.396;6.722;2023-03-09T14:31:42;5.30;99.90
52895;DHT22;38759;53.396;6.722;2023-03-09T14:36:54;5.20;99.90
52895;DHT22;38759;53.396;6.722;2023-03-09T14:44:37;5.20;99.90
52895;DHT22;38759;53.396;6.722;2023-03-09T14:47:14;5.20;99.90
52895;DHT22;38759;53.396;6.722;2023-03-09T14:49:40;5.20;99.90
52895;DHT22;38759;53.396;6.722;2023-03-09T14:52:08;5.10;99.90
52895;DHT22;38759;53.396;6.722;2023-03-09T14:54:33;5.10;99.90
52895;DHT22;38759;53.396;6.722;2023-03-09T14:56:59;5.10;99.90
52895;DHT22;38759;53.396;6.722;2023-03-09T14:59:25;5.00;99.90
52895;DHT22;38759;53.396;6.722;2023-03-09T15:01:53;5.00;99.90
52895;DHT22;38759;53.396;6.722;2023-03-09T15:04:20;5.00;99.90
52895;DHT22;38759;53.396;6.722;2023-03-09T15:06:47;4.90;99.90
52895;DHT22;38759;53.396;6.722;2023-03-09T15:09:16;4.90;99.90
52895;DHT22;38759;53.396;6.722;2023-03-09T15:11:41;4.80;99.90
52895;DHT22;38759;53.396;6.722;2023-03-09T15:14:31;4.80;99.90
52895;DHT22;38759;53.396;6.722;2023-03-09T15:16:55;4.80;99.90
52895;DHT22;38759;53.396;6.722;2023-03-09T15:19:22;4.70;99.90
52895;DHT22;38759;53.396;6.722;2023-03-09T15:21:51;4.60;99.90
52895;DHT22;38759;53.396;6.722;2023-03-09T15:24:20;4.60;99.90
52895;DHT22;38759;53.396;6.722;2023-03-09T15:26:46;4.60;99.90
52895;DHT22;38759;53.396;6.722;2023-03-09T15:29:12;4.60;99.90
52895;DHT22;38759;53.396;6.722;2023-03-09T15:31:38;4.60;99.90
52895;DHT22;38759;53.396;6.722;2023-03-09T15:34:03;4.50;99.90
52895;DHT22;38759;53.396;6.722;2023-03-09T15:36:29;4.60;99.90
52895;DHT22;38759;53.396;6.722;2023-03-09T15:38:55;4.60;99.90
52895;DHT22;38759;53.396;6.722;2023-03-09T15:41:21;4.60;99.90
52895;DHT22;38759;53.396;6.722;2023-03-09T15:43:47;4.50;99.90
52895;DHT22;38759;53.396;6.722;2023-03-09T15:46:12;4.50;99.90
52895;DHT22;38759;53.396;6.722;2023-03-09T15:48:38;4.60;99.90
52895;DHT22;38759;53.396;6.722;2023-03-09T15:51:04;4.60;99.90
52895;DHT22;38759;53.396;6.722;2023-03-09T15:53:33;4.50;99.90
52895;DHT22;38759;53.396;6.722;2023-03-09T15:56:09;4.50;99.90
52895;DHT22;38759;53.396;6.722;2023-03-09T15:58:36;4.50;99.90
52895;DHT22;38759;53.396;6.722;2023-03-09T16:01:07;4.50;99.90
52895;DHT22;38759;53.396;6.722;2023-03-09T16:03:34;4.40;99.90
52895;DHT22;38759;53.396;6.722;2023-03-09T16:06:03;4.40;99.90
52895;DHT22;38759;53.396;6.722;2023-03-09T16:08:29;4.40;99.90
52895;DHT22;38759;53.396;6.722;2023-03-09T16:10:55;4.30;99.90
52895;DHT22;38759;53.396;6.722;2023-03-09T16:13:21;4.40;99.90
52895;DHT22;38759;53.396;6.722;2023-03-09T16:15:48;4.30;99.90
52895;DHT22;38759;53.396;6.722;2023-03-09T16:18:14;4.30;99.90
52895;DHT22;38759;53.396;6.722;2023-03-09T16:20:40;4.20;99.90
52895;DHT22;38759;53.396;6.722;2023-03-09T16:23:06;4.30;99.90
52895;DHT22;38759;53.396;6.722;2023-03-09T16:25:33;4.20;99.90
52895;DHT22;38759;53.396;6.722;2023-03-09T16:27:58;4.10;99.90
52895;DHT22;38759;53.396;6.722;2023-03-09T16:30:26;4.10;99.90
52895;DHT22;38759;53.396;6.722;2023-03-09T16:32:53;4.10;99.90
52895;DHT22;38759;53.396;6.722;2023-03-09T16:35:19;4.10;99.90
52895;DHT22;38759;53.396;6.722;2023-03-09T16:37:48;4.00;99.90
52895;DHT22;38759;53.396;6.722;2023-03-09T16:40:14;4.10;99.90
52895;DHT22;38759;53.396;6.722;2023-03-09T16:42:40;3.90;99.90
52895;DHT22;38759;53.396;6.722;2023-03-09T16:45:06;4.00;99.90
52895;DHT22;38759;53.396;6.722;2023-03-09T16:47:32;3.90;99.90
52895;DHT22;38759;53.396;6.722;2023-03-09T16:50:01;3.90;99.90
52895;DHT22;38759;53.396;6.722;2023-03-09T16:52:28;3.90;99.90
52895;DHT22;38759;53.396;6.722;2023-03-09T16:55:03;3.80;99.90
52895;DHT22;38759;53.396;6.722;2023-03-09T16:57:29;3.80;99.90
52895;DHT22;38759;53.396;6.722;2023-03-09T16:59:57;3.70;99.90
52895;DHT22;38759;53.396;6.722;2023-03-09T17:02:24;3.70;99.90
52895;DHT22;38759;53.396;6.722;2023-03-09T17:04:50;3.70;99.90
52895;DHT22;38759;53.396;6.722;2023-03-09T17:07:16;3.60;99.90
52895;DHT22;38759;53.396;6.722;2023-03-09T17:09:42;3.60;99.90
52895;DHT22;38759;53.396;6.722;2023-03-09T17:12:08;3.50;99.90
52895;DHT22;38759;53.396;6.722;2023-03-09T17:14:34;3.40;99.90
52895;DHT22;38759;53.396;6.722;2023-03-09T17:17:01;3.50;99.90
52895;DHT22;38759;53.396;6.722;2023-03-09T17:19:27;3.50;99.90
52895;DHT22;38759;53.396;6.722;2023-03-09T17:21:52;3.40;99.90
52895;DHT22;38759;53.396;6.722;2023-03-09T17:24:18;3.40;99.90
52895;DHT22;38759;53.396;6.722;2023-03-09T17:26:44;3.30;99.90
52895;DHT22;38759;53.396;6.722;2023-03-09T17:29:11;3.40;99.90
52895;DHT22;38759;53.396;6.722;2023-03-09T17:31:39;3.30;99.90
52895;DHT22;38759;53.396;6.722;2023-03-09T17:34:04;3.30;99.90
52895;DHT22;38759;53.396;6.722;2023-03-09T17:36:30;3.30;99.90
52895;DHT22;38759;53.396;6.722;2023-03-09T17:38:56;3.20;99.90
52895;DHT22;38759;53.396;6.722;2023-03-09T17:41:22;3.20;99.90
52895;DHT22;38759;53.396;6.722;2023-03-09T17:43:49;3.20;99.90
52895;DHT22;38759;53.396;6.722;2023-03-09T17:46:15;3.20;99.90